createdAt,value
2022-11-22T03:55:59.850Z,6.70
2022-11-22T03:58:28.624Z,7.15
2022-11-22T04:00:57.255Z,6.93
2022-11-22T04:03:25.655Z,8.85
2022-11-22T04:05:53.196Z,7.57
2022-11-22T04:08:20.855Z,7.50
2022-11-22T04:10:52.268Z,7.75
2022-11-22T04:13:20.650Z,6.80
2022-11-22T04:15:48.138Z,7.70
2022-11-22T04:18:22.852Z,8.27
2022-11-22T04:21:09.278Z,8.65
2022-11-22T04:23:36.879Z,6.80
2022-11-22T04:26:04.461Z,7.88
2022-11-22T04:29:01.871Z,11.52
2022-11-22T04:31:38.600Z,6.47
2022-11-22T04:34:06.265Z,8.00
2022-11-22T04:36:33.773Z,6.07
2022-11-22T04:39:01.271Z,6.70
2022-11-22T04:41:28.862Z,5.60
2022-11-22T04:44:15.262Z,6.63
2022-11-22T04:46:43.772Z,6.05
2022-11-22T04:49:11.416Z,6.75
2022-11-22T04:51:57.587Z,7.32
2022-11-22T04:54:28.214Z,6.28
2022-11-22T04:56:55.935Z,5.93
2022-11-22T04:59:23.542Z,6.70
2022-11-22T05:01:52.763Z,6.82
2022-11-22T05:04:20.293Z,6.93
2022-11-22T05:06:48.812Z,6.03
2022-11-22T05:09:16.770Z,5.80
2022-11-22T05:11:44.460Z,6.07
2022-11-22T05:14:16.546Z,6.57
2022-11-22T05:16:45.282Z,5.70
2022-11-22T05:19:12.984Z,6.28
2022-11-22T05:21:41.324Z,6.22
2022-11-22T05:24:09.217Z,6.22
2022-11-22T05:26:38.723Z,6.93
2022-11-22T05:29:08.840Z,6.35
2022-11-22T05:31:38.523Z,6.53
2022-11-22T05:36:35.201Z,6.13
2022-11-22T05:39:03.979Z,6.18
2022-11-22T05:41:32.349Z,6.38
2022-11-22T05:44:00.131Z,7.07
2022-11-22T05:46:30.365Z,7.65
2022-11-22T05:48:58.885Z,7.32
2022-11-22T05:51:34.114Z,7.53
2022-11-22T05:54:02.760Z,8.32
2022-11-22T05:56:31.042Z,7.30
2022-11-22T05:58:58.886Z,6.05
2022-11-22T06:01:26.982Z,5.75
2022-11-22T06:03:54.882Z,6.13
2022-11-22T06:06:23.022Z,6.53
2022-11-22T06:08:51.647Z,5.75
2022-11-22T06:11:25.680Z,5.90
2022-11-22T06:14:03.155Z,7.15
2022-11-22T06:16:30.932Z,6.80
2022-11-22T06:18:58.803Z,7.68
2022-11-22T06:21:26.578Z,7.57
2022-11-22T06:23:55.803Z,6.32
2022-11-22T06:26:26.922Z,7.15
2022-11-22T06:28:55.140Z,6.97
2022-11-22T06:31:25.109Z,6.90
2022-11-22T06:33:59.573Z,6.85
2022-11-22T06:36:29.739Z,8.98
2022-11-22T06:38:58.205Z,6.90
2022-11-22T06:41:33.007Z,6.57
2022-11-22T06:44:05.295Z,4.18
2022-11-22T06:46:33.155Z,4.78
2022-11-22T06:49:01.077Z,5.97
2022-11-22T06:51:30.749Z,5.03
2022-11-22T06:53:59.563Z,6.30
2022-11-22T06:56:30.087Z,4.70
2022-11-22T06:58:58.295Z,6.25
2022-11-22T07:01:28.591Z,5.40
2022-11-22T07:03:58.659Z,5.97
2022-11-22T07:06:29.743Z,6.47
2022-11-22T07:08:57.752Z,6.93
2022-11-22T07:11:28.171Z,11.63
2022-11-22T07:14:06.579Z,10.25
2022-11-22T07:16:37.432Z,7.90
2022-11-22T07:19:06.109Z,7.18
2022-11-22T07:21:35.105Z,7.50
2022-11-22T07:24:04.620Z,5.97
2022-11-22T07:28:59.850Z,5.60
2022-11-22T07:31:28.327Z,5.15
2022-11-22T07:33:58.024Z,5.45
2022-11-22T07:38:53.395Z,6.47
2022-11-22T07:41:22.268Z,8.77
2022-11-22T07:43:49.948Z,11.07
2022-11-22T07:46:29.420Z,10.00
2022-11-22T07:49:01.776Z,11.07
2022-11-22T07:51:29.914Z,11.40
2022-11-22T07:53:58.603Z,8.45
2022-11-22T07:56:26.167Z,7.60
2022-11-22T07:58:54.970Z,13.65
2022-11-22T08:01:23.778Z,18.15
2022-11-22T08:03:51.773Z,12.73
2022-11-22T08:06:19.560Z,12.07
2022-11-22T08:08:47.292Z,11.40
2022-11-22T08:11:15.179Z,22.35
2022-11-22T08:13:44.035Z,10.27
2022-11-22T08:16:16.634Z,11.05
2022-11-22T08:18:48.909Z,12.32
2022-11-22T08:21:18.616Z,9.25
2022-11-22T08:23:48.323Z,9.77
2022-11-22T08:26:18.153Z,11.80
2022-11-22T08:28:46.116Z,12.52
2022-11-22T08:31:19.842Z,12.00
2022-11-22T08:33:48.953Z,11.00
2022-11-22T08:36:16.482Z,10.57
2022-11-22T08:38:44.881Z,9.88
2022-11-22T08:41:13.150Z,9.02
2022-11-22T08:43:41.027Z,10.55
2022-11-22T08:46:08.678Z,14.45
2022-11-22T08:48:38.360Z,13.03
2022-11-22T08:51:09.251Z,14.88
2022-11-22T08:53:42.807Z,13.20
2022-11-22T08:56:14.004Z,14.30
2022-11-22T08:58:43.423Z,13.32
2022-11-22T09:02:21.024Z,14.07
2022-11-22T09:04:48.653Z,12.20
2022-11-22T09:10:05.847Z,11.23
2022-11-22T09:12:37.559Z,9.70
2022-11-22T09:15:05.588Z,10.57
2022-11-22T09:17:33.246Z,10.38
2022-11-22T09:20:00.870Z,9.95
2022-11-22T09:22:28.780Z,9.90
2022-11-22T09:24:57.052Z,8.32
2022-11-22T09:27:24.726Z,9.85
2022-11-22T09:29:52.343Z,8.63
2022-11-22T09:32:20.120Z,9.18
2022-11-22T09:34:47.890Z,9.45
2022-11-22T09:37:18.584Z,9.18
2022-11-22T09:39:49.355Z,9.00
2022-11-22T09:42:28.915Z,10.27
2022-11-22T09:45:21.143Z,11.35
2022-11-22T09:47:57.541Z,10.85
2022-11-22T09:50:51.810Z,11.73
2022-11-22T09:53:28.560Z,11.90
2022-11-22T09:56:03.418Z,12.88
2022-11-22T09:58:47.671Z,12.82
2022-11-22T10:01:21.715Z,12.85
2022-11-22T10:03:59.061Z,13.00
2022-11-22T10:06:35.319Z,14.05
2022-11-22T10:09:35.434Z,23.35
2022-11-22T10:12:15.584Z,15.93
2022-11-22T10:14:54.556Z,14.15
2022-11-22T10:17:49.487Z,13.40
2022-11-22T10:20:24.239Z,15.77
2022-11-22T10:22:53.052Z,13.63
2022-11-22T10:25:39.996Z,12.87
2022-11-22T10:28:18.431Z,12.60
2022-11-22T10:31:00.447Z,13.83
2022-11-22T10:33:44.012Z,12.48
2022-11-22T10:36:37.465Z,10.85
2022-11-22T10:39:11.326Z,10.38
2022-11-22T10:42:02.432Z,10.18
2022-11-22T10:44:31.171Z,10.80
2022-11-22T10:47:04.032Z,10.02
2022-11-22T10:50:10.331Z,9.15
2022-11-22T10:52:44.666Z,10.05
2022-11-22T10:55:22.335Z,9.80
2022-11-22T10:58:14.071Z,9.48
2022-11-22T11:00:47.049Z,23.45
2022-11-22T11:03:36.433Z,9.38
2022-11-22T11:10:09.790Z,8.60
2022-11-22T11:12:32.436Z,9.10
2022-11-22T11:15:05.488Z,8.65
2022-11-22T11:17:37.723Z,8.45
2022-11-22T11:20:17.283Z,8.75
2022-11-22T11:23:13.255Z,9.07
2022-11-22T11:25:35.218Z,8.27
2022-11-22T11:28:27.377Z,9.32
2022-11-22T11:30:58.991Z,8.23
2022-11-22T11:33:32.977Z,7.93
2022-11-22T11:36:07.096Z,6.97
2022-11-22T11:38:36.528Z,7.40
2022-11-22T11:41:43.404Z,6.70
2022-11-22T11:44:26.251Z,6.30
2022-11-22T11:46:55.492Z,6.28
2022-11-22T11:49:28.619Z,5.93
2022-11-22T11:51:59.612Z,5.82
2022-11-22T11:54:39.255Z,6.30
2022-11-22T11:57:11.755Z,7.05
2022-11-22T11:59:39.563Z,7.35
2022-11-22T12:02:39.716Z,7.50
2022-11-22T12:05:14.149Z,7.47
2022-11-22T12:07:47.924Z,6.80
2022-11-22T12:10:56.397Z,6.85
2022-11-22T12:13:30.386Z,5.97
2022-11-22T12:16:13.764Z,5.90
2022-11-22T12:18:42.660Z,5.72
2022-11-22T12:21:13.944Z,6.30
2022-11-22T12:24:45.255Z,5.90
2022-11-22T12:27:12.088Z,5.70
2022-11-22T12:29:42.005Z,5.25
2022-11-22T12:32:32.636Z,5.32
2022-11-22T12:35:10.534Z,5.22
2022-11-22T12:37:56.230Z,5.68
2022-11-22T12:40:27.814Z,5.53
2022-11-22T12:43:00.992Z,5.20
2022-11-22T12:45:48.241Z,5.20
2022-11-22T12:48:24.221Z,8.38
2022-11-22T12:51:40.109Z,5.90
2022-11-22T12:54:14.783Z,6.00
2022-11-22T12:56:53.114Z,6.53
2022-11-22T12:59:36.255Z,6.82
2022-11-22T13:02:40.890Z,9.05
2022-11-22T13:05:20.451Z,5.80
2022-11-22T13:08:09.819Z,5.75
2022-11-22T13:10:56.369Z,4.80
2022-11-22T13:13:30.362Z,4.75
2022-11-22T13:16:02.934Z,4.78
2022-11-22T13:18:34.828Z,4.25
2022-11-22T13:21:20.891Z,4.93
2022-11-22T13:24:19.755Z,5.45
2022-11-22T13:27:03.470Z,5.28
2022-11-22T13:29:34.863Z,4.85
2022-11-22T13:32:03.791Z,5.40
2022-11-22T13:34:36.531Z,7.00
2022-11-22T13:37:22.472Z,6.50
2022-11-22T13:39:50.631Z,6.60
2022-11-22T13:42:28.775Z,5.72
2022-11-22T13:44:56.554Z,4.90
2022-11-22T13:47:24.485Z,4.72
2022-11-22T13:49:54.167Z,4.07
2022-11-22T13:52:22.309Z,4.32
2022-11-22T13:54:50.032Z,4.55
2022-11-22T13:57:34.714Z,4.40
2022-11-22T14:00:11.513Z,4.32
2022-11-22T14:02:46.960Z,5.00
2022-11-22T14:05:17.546Z,5.07
2022-11-22T14:07:49.715Z,4.28
2022-11-22T14:11:02.679Z,4.50
2022-11-22T14:13:52.413Z,4.70
2022-11-22T14:16:40.023Z,4.57
2022-11-22T14:19:26.510Z,5.30
2022-11-22T14:22:13.263Z,5.82
2022-11-22T14:25:00.001Z,6.18
2022-11-22T14:28:02.757Z,6.53
2022-11-22T14:30:54.284Z,5.97
2022-11-22T14:33:24.297Z,7.07
2022-11-22T14:36:07.326Z,7.85
2022-11-22T14:38:43.156Z,7.55
2022-11-22T14:41:28.532Z,6.85
2022-11-22T14:44:01.827Z,11.18
2022-11-22T14:46:53.199Z,8.43
2022-11-22T14:49:26.743Z,7.50
2022-11-22T14:51:57.622Z,7.32
2022-11-22T14:54:30.862Z,7.78
2022-11-22T14:57:05.117Z,7.32
2022-11-22T15:00:00.932Z,7.68
2022-11-22T15:03:06.294Z,7.28
2022-11-22T15:09:17.857Z,7.28
2022-11-22T15:09:20.990Z,7.43
2022-11-22T15:11:53.021Z,7.93
2022-11-22T15:14:58.070Z,6.93
2022-11-22T15:58:09.274Z,10.60
2022-11-22T16:00:37.116Z,11.05
2022-11-22T16:03:06.920Z,11.10
2022-11-22T16:06:06.744Z,12.07
2022-11-22T16:08:29.412Z,12.90
2022-11-22T16:11:01.813Z,11.95
2022-11-22T16:13:36.037Z,12.77
2022-11-22T16:16:12.781Z,12.13
2022-11-22T16:18:50.836Z,12.05
2022-11-22T16:21:25.262Z,13.38
2022-11-22T16:24:16.643Z,12.30
2022-11-22T16:27:04.147Z,13.55
2022-11-22T16:29:34.243Z,13.20
2022-11-22T16:32:20.164Z,12.63
2022-11-22T16:34:51.664Z,11.98
2022-11-22T16:37:37.676Z,12.17
2022-11-22T16:40:07.345Z,12.20
2022-11-22T16:42:40.784Z,11.15
2022-11-22T16:45:19.152Z,11.32
2022-11-22T16:47:54.618Z,12.30
2022-11-22T16:50:35.802Z,11.18
2022-11-22T16:53:03.468Z,11.88
2022-11-22T16:55:31.473Z,12.10
2022-11-22T16:57:59.047Z,12.95
2022-11-22T17:00:27.266Z,10.93
2022-11-22T17:02:55.031Z,11.35
2022-11-22T17:05:22.494Z,12.63
2022-11-22T17:07:50.765Z,11.60
2022-11-22T17:10:19.239Z,13.57
2022-11-22T17:15:18.827Z,12.00
2022-11-22T17:17:46.454Z,19.45
2022-11-22T17:20:14.268Z,14.60
2022-11-22T17:22:43.179Z,12.82
2022-11-22T17:25:13.882Z,13.73
2022-11-22T17:27:43.591Z,13.70
2022-11-22T17:30:13.263Z,13.90
2022-11-22T17:32:41.248Z,14.20
2022-11-22T17:35:10.513Z,15.70
2022-11-22T17:37:38.237Z,14.80
2022-11-22T17:40:06.718Z,14.90
2022-11-22T17:42:40.782Z,16.17
2022-11-22T17:45:09.515Z,16.75
2022-11-22T17:47:37.808Z,17.65
2022-11-22T17:50:06.106Z,17.95
2022-11-22T17:52:33.897Z,18.02
2022-11-22T17:55:05.632Z,17.40
2022-11-22T17:57:36.282Z,16.65
2022-11-22T18:00:07.045Z,15.90
2022-11-22T18:02:35.529Z,15.55
2022-11-22T18:05:08.477Z,16.67
2022-11-22T18:07:40.561Z,15.35
2022-11-22T18:10:10.140Z,15.45
2022-11-22T18:12:42.296Z,13.82
2022-11-22T18:15:14.589Z,15.50
2022-11-22T18:17:44.311Z,15.00
2022-11-22T18:20:11.910Z,13.75
2022-11-22T18:22:39.742Z,14.65
2022-11-22T18:25:07.540Z,14.60
2022-11-22T18:30:10.668Z,12.30
2022-11-22T18:32:38.379Z,12.77
2022-11-22T18:35:06.462Z,11.68
2022-11-22T18:37:34.394Z,12.35
2022-11-22T18:40:06.012Z,13.32
2022-11-22T18:42:35.974Z,12.88
2022-11-22T18:45:03.711Z,11.95
2022-11-22T18:47:31.321Z,12.10
2022-11-22T18:49:59.382Z,11.30
2022-11-22T18:52:27.087Z,11.25
2022-11-22T18:54:56.986Z,10.27
2022-11-22T18:57:24.620Z,9.98
2022-11-22T18:59:52.647Z,10.48
2022-11-22T19:02:25.829Z,11.13
2022-11-22T19:04:54.403Z,10.02
2022-11-22T19:07:22.673Z,11.97
2022-11-22T19:09:53.421Z,10.85
2022-11-22T19:12:21.574Z,10.75
2022-11-22T19:14:51.358Z,12.05
2022-11-22T19:17:22.032Z,11.00
2022-11-22T19:19:57.017Z,11.00
2022-11-22T19:22:26.243Z,11.60
2022-11-22T19:24:54.399Z,10.77
2022-11-22T19:27:22.175Z,10.25
2022-11-22T19:29:49.902Z,12.10
2022-11-22T19:32:18.004Z,11.80
2022-11-22T19:34:45.505Z,10.75
2022-11-22T19:37:13.276Z,12.48
2022-11-22T19:39:40.806Z,11.18
2022-11-22T19:42:08.460Z,11.38
2022-11-22T19:44:38.679Z,13.02
2022-11-22T19:47:06.796Z,13.25
2022-11-22T19:49:34.360Z,11.98
2022-11-22T19:52:02.385Z,13.00
2022-11-22T19:54:30.015Z,12.68
2022-11-22T19:56:57.874Z,12.00
2022-11-22T19:59:25.402Z,11.85
2022-11-22T20:01:53.124Z,12.02
2022-11-22T20:04:20.703Z,11.40
2022-11-22T20:06:50.300Z,12.23
2022-11-22T20:09:18.286Z,11.25
2022-11-22T20:11:47.688Z,12.27
2022-11-22T20:14:15.932Z,13.15
2022-11-22T20:16:44.373Z,15.45
2022-11-22T20:19:12.539Z,15.05
2022-11-22T20:24:09.795Z,15.15
2022-11-22T20:26:40.420Z,14.10
2022-11-22T20:29:11.949Z,14.23
2022-11-22T20:31:41.004Z,17.33
2022-11-22T20:34:10.235Z,14.25
2022-11-22T20:36:40.796Z,13.38
2022-11-22T20:39:10.754Z,12.82
2022-11-22T20:41:40.539Z,12.85
2022-11-22T20:44:12.886Z,11.65
2022-11-22T20:46:41.497Z,11.10
2022-11-22T20:49:09.142Z,11.70
2022-11-22T20:51:40.040Z,11.70
2022-11-22T20:54:08.417Z,12.02
2022-11-22T20:56:37.687Z,11.00
2022-11-22T20:59:05.492Z,10.80
2022-11-22T21:01:34.285Z,11.88
2022-11-22T21:04:02.843Z,11.52
2022-11-22T21:06:32.934Z,13.30
2022-11-22T21:09:01.214Z,12.35
2022-11-22T21:11:31.128Z,13.70
2022-11-22T21:13:59.647Z,14.77
2022-11-22T21:16:29.398Z,15.10
2022-11-22T21:19:02.184Z,14.70
2022-11-22T21:21:31.347Z,15.25
2022-11-22T21:24:02.837Z,13.50
2022-11-22T21:26:31.006Z,18.60
2022-11-22T21:28:59.650Z,14.77
2022-11-22T21:31:28.195Z,13.97
2022-11-22T21:33:56.024Z,15.40
2022-11-22T21:36:23.653Z,14.48
2022-11-22T21:38:51.323Z,13.15
2022-11-22T21:41:39.187Z,13.63
2022-11-22T21:44:09.179Z,12.68
2022-11-22T21:46:37.078Z,14.38
2022-11-22T21:49:04.794Z,13.13
2022-11-22T21:51:32.505Z,12.73
2022-11-22T21:54:01.373Z,12.80
2022-11-22T21:56:29.474Z,13.05
2022-11-22T21:58:57.317Z,12.45
2022-11-22T22:01:25.418Z,12.55
2022-11-22T22:03:53.984Z,12.07
2022-11-22T22:06:21.683Z,13.90
2022-11-22T22:08:50.367Z,12.55
2022-11-22T22:11:17.942Z,12.30
2022-11-22T22:13:46.278Z,11.13
2022-11-22T22:16:23.400Z,9.35
2022-11-22T22:18:51.160Z,11.30
2022-11-22T22:21:19.912Z,10.85
2022-11-22T22:23:47.826Z,8.90
2022-11-22T22:26:17.154Z,10.45
2022-11-22T22:28:46.161Z,10.77
2022-11-22T22:31:21.818Z,9.52
2022-11-22T22:33:57.325Z,9.52
2022-11-22T22:36:27.307Z,10.70
2022-11-22T22:38:55.215Z,11.48
2022-11-22T22:41:23.374Z,12.18
2022-11-22T22:43:50.927Z,11.60
2022-11-22T22:46:24.874Z,10.30
2022-11-22T22:48:54.924Z,9.68
2022-11-22T22:51:30.634Z,9.73
2022-11-22T22:54:01.094Z,10.30
2022-11-22T22:56:30.660Z,14.60
2022-11-22T22:59:01.123Z,9.38
2022-11-22T23:01:31.134Z,9.40
2022-11-22T23:04:01.083Z,9.07
2022-11-22T23:06:31.188Z,9.63
2022-11-22T23:08:59.270Z,8.90
2022-11-22T23:11:47.943Z,8.23
2022-11-22T23:14:21.822Z,7.35
2022-11-22T23:16:54.553Z,7.88
2022-11-22T23:19:26.227Z,8.50
2022-11-22T23:21:54.836Z,8.00
2022-11-22T23:24:22.638Z,7.30
2022-11-22T23:26:51.521Z,6.50
2022-11-22T23:29:19.023Z,7.35
2022-11-22T23:31:46.834Z,7.22
2022-11-22T23:34:14.395Z,7.15
2022-11-22T23:36:42.598Z,6.65
2022-11-22T23:39:11.631Z,7.63
2022-11-22T23:44:07.564Z,7.20
2022-11-22T23:46:35.624Z,7.60
2022-11-22T23:49:04.969Z,9.88
2022-11-22T23:51:34.252Z,10.10
2022-11-22T23:54:04.246Z,10.30
2022-11-22T23:56:34.927Z,10.00
